createdAt,value
2023-06-19T00:00:17.009Z,2.73
2023-06-19T00:02:44.563Z,2.47
2023-06-19T00:05:11.515Z,3.07
2023-06-19T00:07:38.378Z,2.90
2023-06-19T00:10:05.592Z,2.97
2023-06-19T00:12:32.455Z,3.03
2023-06-19T00:14:59.245Z,3.00
2023-06-19T00:17:27.645Z,2.90
2023-06-19T00:19:54.952Z,2.70
2023-06-19T00:22:21.615Z,3.27
2023-06-19T00:24:48.987Z,3.03
2023-06-19T00:27:15.471Z,3.00
2023-06-19T00:29:41.975Z,2.60
2023-06-19T00:32:08.737Z,2.77
2023-06-19T00:34:35.222Z,3.40
2023-06-19T00:37:01.694Z,3.30
2023-06-19T00:39:28.853Z,2.93
2023-06-19T00:41:56.317Z,2.77
2023-06-19T00:44:24.443Z,2.77
2023-06-19T00:46:56.909Z,2.47
2023-06-19T00:49:26.018Z,2.67
2023-06-19T00:51:53.597Z,2.60
2023-06-19T00:54:21.042Z,2.90
2023-06-19T00:56:48.079Z,2.60
2023-06-19T00:59:21.605Z,3.10
2023-06-19T01:01:48.179Z,3.10
2023-06-19T01:04:14.926Z,3.00
2023-06-19T01:07:04.057Z,2.83
2023-06-19T01:09:39.779Z,2.93
2023-06-19T01:12:12.707Z,2.50
2023-06-19T01:14:51.049Z,2.63
2023-06-19T01:17:17.721Z,2.57
2023-06-19T01:19:44.528Z,2.47
2023-06-19T01:22:11.061Z,2.60
2023-06-19T01:24:37.820Z,2.00
2023-06-19T01:27:04.629Z,2.40
2023-06-19T01:29:31.041Z,2.70
2023-06-19T01:32:14.589Z,2.80
2023-06-19T01:34:41.464Z,2.93
2023-06-19T01:37:10.578Z,2.77
2023-06-19T01:39:38.438Z,2.43
2023-06-19T01:42:06.182Z,2.30
2023-06-19T01:44:33.014Z,2.53
2023-06-19T01:46:59.463Z,1.90
2023-06-19T01:49:26.272Z,2.17
2023-06-19T01:51:52.827Z,1.77
2023-06-19T01:54:19.295Z,2.00
2023-06-19T01:56:45.985Z,2.57
2023-06-19T01:59:12.416Z,1.43
2023-06-19T02:01:38.922Z,2.03
2023-06-19T02:04:05.586Z,1.80
2023-06-19T02:06:32.472Z,1.97
2023-06-19T02:08:58.988Z,1.63
2023-06-19T02:11:25.445Z,1.70
2023-06-19T02:13:52.200Z,2.10
2023-06-19T02:16:19.198Z,1.37
2023-06-19T02:18:45.661Z,1.70
2023-06-19T02:21:12.184Z,1.40
2023-06-19T02:23:38.652Z,1.93
2023-06-19T02:26:05.122Z,1.80
2023-06-19T02:28:31.521Z,1.60
2023-06-19T02:30:58.025Z,1.90
2023-06-19T02:33:24.558Z,1.80
2023-06-19T02:35:51.061Z,1.90
2023-06-19T02:38:19.709Z,1.70
2023-06-19T02:40:46.111Z,1.67
2023-06-19T02:43:12.569Z,1.90
2023-06-19T02:45:39.065Z,1.57
2023-06-19T02:48:05.732Z,1.60
2023-06-19T02:50:32.345Z,1.93
2023-06-19T02:52:59.000Z,1.77
2023-06-19T02:55:25.557Z,1.63
2023-06-19T02:57:52.228Z,1.73
2023-06-19T03:00:18.842Z,1.80
2023-06-19T03:02:45.516Z,2.00
2023-06-19T03:05:16.031Z,1.53
2023-06-19T03:07:42.742Z,1.60
2023-06-19T03:10:09.580Z,1.70
2023-06-19T03:12:36.030Z,1.93
2023-06-19T03:15:02.642Z,1.70
2023-06-19T03:17:29.153Z,2.00
2023-06-19T03:19:55.621Z,2.43
2023-06-19T03:22:22.862Z,2.13
2023-06-19T03:24:49.338Z,1.70
2023-06-19T03:27:15.906Z,1.70
2023-06-19T03:29:42.350Z,1.83
2023-06-19T03:32:08.787Z,1.80
2023-06-19T03:34:35.473Z,2.00
2023-06-19T03:37:01.930Z,2.27
2023-06-19T03:39:28.334Z,1.90
2023-06-19T03:41:54.826Z,1.73
2023-06-19T03:44:21.268Z,1.60
2023-06-19T03:46:48.572Z,2.10
2023-06-19T03:49:15.002Z,2.00
2023-06-19T03:51:41.529Z,1.97
2023-06-19T03:54:08.013Z,3.97
2023-06-19T03:56:34.615Z,1.90
2023-06-19T03:59:01.065Z,1.80
2023-06-19T04:01:27.734Z,1.53
2023-06-19T04:03:54.235Z,1.70
2023-06-19T04:06:20.766Z,1.00
2023-06-19T04:08:47.268Z,1.57
2023-06-19T04:11:13.784Z,0.97
2023-06-19T04:13:40.271Z,1.00
2023-06-19T04:16:06.777Z,1.17
2023-06-19T04:18:33.432Z,1.00
2023-06-19T04:21:00.366Z,1.30
2023-06-19T04:23:26.977Z,0.90
2023-06-19T04:25:53.432Z,0.90
2023-06-19T04:28:19.863Z,1.30
2023-06-19T04:30:46.401Z,1.00
2023-06-19T04:33:13.118Z,0.90
2023-06-19T04:35:41.461Z,1.20
2023-06-19T04:38:09.032Z,1.37
2023-06-19T04:40:35.616Z,1.33
2023-06-19T04:43:03.520Z,1.00
2023-06-19T04:45:30.052Z,1.73
2023-06-19T04:47:56.592Z,1.40
2023-06-19T04:50:23.578Z,1.47
2023-06-19T04:52:51.927Z,1.20
2023-06-19T04:55:19.210Z,1.23
2023-06-19T04:57:45.929Z,1.20
2023-06-19T05:00:13.693Z,1.13
2023-06-19T05:02:40.227Z,1.43
2023-06-19T05:05:07.412Z,1.10
2023-06-19T05:07:33.932Z,1.00
2023-06-19T05:10:00.526Z,1.17
2023-06-19T05:12:27.113Z,1.40
2023-06-19T05:14:53.631Z,1.10
2023-06-19T05:17:20.225Z,1.20
2023-06-19T05:19:46.756Z,1.30
2023-06-19T05:22:13.379Z,1.30
2023-06-19T05:24:40.413Z,1.20
2023-06-19T05:27:07.200Z,1.37
2023-06-19T05:29:33.736Z,1.37
2023-06-19T05:32:00.216Z,1.30
2023-06-19T05:34:26.657Z,1.60
2023-06-19T05:36:53.117Z,1.57
2023-06-19T05:39:20.083Z,1.30
2023-06-19T05:41:49.409Z,1.27
2023-06-19T05:44:17.760Z,1.30
2023-06-19T05:46:44.429Z,1.80
2023-06-19T05:49:11.346Z,1.73
2023-06-19T05:51:38.201Z,1.60
2023-06-19T05:54:05.298Z,1.60
2023-06-19T05:56:34.057Z,1.30
2023-06-19T05:59:06.659Z,1.20
2023-06-19T06:01:33.137Z,1.07
2023-06-19T06:03:59.621Z,1.60
2023-06-19T06:06:26.882Z,1.53
2023-06-19T06:08:53.969Z,1.43
2023-06-19T06:11:20.531Z,1.80
2023-06-19T06:13:47.236Z,1.60
2023-06-19T06:16:13.782Z,1.10
2023-06-19T06:18:40.278Z,1.47
2023-06-19T06:21:06.792Z,1.20
2023-06-19T06:23:33.694Z,1.40
2023-06-19T06:26:03.521Z,1.20
2023-06-19T06:28:30.458Z,0.80
2023-06-19T06:30:56.930Z,1.03
2023-06-19T06:33:24.271Z,1.20
2023-06-19T06:35:53.666Z,1.20
2023-06-19T06:38:20.106Z,1.10
2023-06-19T06:40:47.035Z,1.13
2023-06-19T06:43:13.552Z,1.50
2023-06-19T06:46:13.787Z,1.57
2023-06-19T06:49:09.017Z,1.37
2023-06-19T06:51:44.462Z,1.10
2023-06-19T06:54:47.046Z,1.27
2023-06-19T07:01:46.208Z,1.23
2023-06-19T07:31:07.249Z,1.07
2023-06-19T07:40:34.918Z,0.77
2023-06-19T07:46:20.765Z,0.80
2023-06-19T07:48:47.352Z,1.50
2023-06-19T07:51:13.830Z,1.70
2023-06-19T07:53:40.829Z,1.47
2023-06-19T07:56:07.654Z,1.57
2023-06-19T07:58:34.318Z,1.30
2023-06-19T08:01:01.212Z,0.97
2023-06-19T08:03:28.513Z,1.00
2023-06-19T08:05:55.104Z,0.83
2023-06-19T08:08:21.642Z,1.23
2023-06-19T08:10:48.115Z,0.80
2023-06-19T08:13:14.768Z,0.97
2023-06-19T08:15:41.265Z,1.00
2023-06-19T08:18:07.926Z,0.80
2023-06-19T08:20:34.691Z,1.87
2023-06-19T08:23:01.238Z,0.77
2023-06-19T08:25:27.798Z,1.07
2023-06-19T08:27:54.275Z,1.00
2023-06-19T08:30:20.787Z,1.17
2023-06-19T08:32:47.850Z,0.80
2023-06-19T08:35:14.404Z,1.10
2023-06-19T08:37:40.915Z,0.80
2023-06-19T08:40:10.534Z,1.10
2023-06-19T08:42:38.088Z,0.73
2023-06-19T08:45:05.866Z,0.80
2023-06-19T08:47:35.674Z,1.27
2023-06-19T08:50:03.192Z,0.50
2023-06-19T08:52:29.848Z,1.40
2023-06-19T08:54:56.294Z,0.77
2023-06-19T08:57:22.816Z,1.10
2023-06-19T08:59:50.932Z,1.00
2023-06-19T09:02:17.826Z,0.90
2023-06-19T09:04:44.403Z,1.00
2023-06-19T09:07:13.175Z,1.10
2023-06-19T09:09:46.157Z,1.00
2023-06-19T09:12:14.463Z,1.30
2023-06-19T09:14:42.970Z,1.27
2023-06-19T09:17:13.874Z,1.20
2023-06-19T09:19:52.520Z,1.63
2023-06-19T09:22:22.064Z,1.23
2023-06-19T09:24:49.606Z,1.20
2023-06-19T09:27:19.470Z,1.17
2023-06-19T09:32:15.802Z,1.30
2023-06-19T09:34:42.303Z,1.07
2023-06-19T09:37:10.036Z,0.83
2023-06-19T09:39:41.240Z,1.03
2023-06-19T09:42:09.351Z,1.00
2023-06-19T09:47:35.769Z,1.10
2023-06-19T09:48:35.262Z,1.40
2023-06-19T09:57:59.026Z,1.03
2023-06-19T10:04:31.686Z,1.27
2023-06-19T10:38:18.571Z,1.40
2023-06-19T10:44:29.666Z,1.27
2023-06-19T10:46:56.285Z,1.13
2023-06-19T10:49:23.373Z,1.30
2023-06-19T10:51:49.859Z,1.03
2023-06-19T10:54:16.476Z,0.80
2023-06-19T10:56:44.681Z,1.30
2023-06-19T10:59:12.674Z,1.63
2023-06-19T11:01:45.542Z,1.10
2023-06-19T11:04:14.169Z,1.37
2023-06-19T11:06:42.415Z,1.60
2023-06-19T11:09:12.527Z,1.13
2023-06-19T11:11:39.737Z,1.07
2023-06-19T11:14:06.813Z,1.60
2023-06-19T11:16:34.402Z,1.20
2023-06-19T11:19:02.061Z,1.10
2023-06-19T11:21:39.117Z,1.53
2023-06-19T11:24:12.114Z,1.77
2023-06-19T11:26:39.728Z,1.17
2023-06-19T11:29:32.909Z,1.40
2023-06-19T11:32:11.897Z,1.53
2023-06-19T11:34:38.505Z,1.20
2023-06-19T11:37:15.852Z,1.57
2023-06-19T11:39:45.216Z,1.30
2023-06-19T11:42:11.746Z,1.40
2023-06-19T12:17:32.429Z,1.67
2023-06-19T12:23:59.373Z,1.07
2023-06-19T12:27:01.110Z,1.40
2023-06-19T12:31:05.670Z,1.40
2023-06-19T12:33:14.021Z,1.50
2023-06-19T12:36:48.074Z,1.90
2023-06-19T12:39:20.122Z,1.20
2023-06-19T12:42:37.655Z,1.23
2023-06-19T12:45:04.538Z,1.47
2023-06-19T12:47:31.105Z,1.23
2023-06-19T12:49:57.664Z,1.40
2023-06-19T12:52:24.138Z,1.30
2023-06-19T12:54:50.610Z,1.40
2023-06-19T12:57:17.417Z,1.33
2023-06-19T12:59:43.967Z,1.57
2023-06-19T13:02:12.625Z,1.30
2023-06-19T13:04:40.686Z,1.60
2023-06-19T13:07:07.818Z,1.13
2023-06-19T13:09:34.292Z,1.50
2023-06-19T13:12:00.822Z,1.27
2023-06-19T13:14:27.293Z,1.40
2023-06-19T13:16:53.877Z,1.53
2023-06-19T13:19:20.586Z,1.40
2023-06-19T13:21:47.052Z,1.30
2023-06-19T13:24:13.776Z,1.60
2023-06-19T13:26:40.459Z,1.40
2023-06-19T13:29:06.972Z,1.70
2023-06-19T13:31:33.546Z,1.13
2023-06-19T13:34:00.027Z,1.07
2023-06-19T13:36:27.867Z,1.00
2023-06-19T13:39:02.273Z,1.30
2023-06-19T13:41:29.206Z,1.90
2023-06-19T14:00:45.007Z,1.27
2023-06-19T14:03:20.860Z,1.43
2023-06-19T14:13:08.734Z,1.57
2023-06-19T14:40:38.259Z,1.70
2023-06-19T14:58:46.261Z,1.47
2023-06-19T15:26:55.105Z,1.53
2023-06-19T15:29:21.580Z,1.50
2023-06-19T15:31:48.050Z,1.33
2023-06-19T15:34:14.506Z,1.43
2023-06-19T15:36:41.040Z,1.60
2023-06-19T15:39:07.522Z,1.63
2023-06-19T15:41:34.123Z,1.17
2023-06-19T15:44:00.591Z,1.27
2023-06-19T15:46:27.031Z,1.60
2023-06-19T15:48:53.899Z,1.30
2023-06-19T15:51:20.442Z,1.40
2023-06-19T15:53:47.253Z,1.60
2023-06-19T15:56:14.094Z,1.80
2023-06-19T15:58:40.736Z,1.50
2023-06-19T16:01:07.278Z,1.60
2023-06-19T16:03:34.352Z,1.53
2023-06-19T16:06:07.753Z,1.40
2023-06-19T16:08:35.088Z,1.30
2023-06-19T16:11:04.104Z,1.70
2023-06-19T16:13:30.671Z,1.50
2023-06-19T16:15:57.190Z,1.73
2023-06-19T16:18:23.746Z,2.07
2023-06-19T16:20:50.181Z,1.40
2023-06-19T16:23:16.670Z,1.40
2023-06-19T16:26:46.675Z,1.27
2023-06-19T16:32:35.969Z,1.20
2023-06-19T16:41:23.666Z,1.90
2023-06-19T16:51:43.172Z,1.80
2023-06-19T17:00:27.184Z,1.40
2023-06-19T17:03:28.179Z,1.77
2023-06-19T17:09:59.280Z,2.00
2023-06-19T17:16:32.610Z,1.60
2023-06-19T17:25:32.688Z,2.03
2023-06-19T17:27:59.691Z,1.57
2023-06-19T17:30:29.305Z,2.27
2023-06-19T17:32:58.155Z,1.50
2023-06-19T17:35:25.572Z,1.50
2023-06-19T17:37:51.988Z,1.50
2023-06-19T17:40:18.597Z,1.93
2023-06-19T17:42:45.073Z,1.10
2023-06-19T17:45:12.438Z,1.53
2023-06-19T17:47:39.426Z,1.63
2023-06-19T17:50:06.661Z,1.70
2023-06-19T17:52:33.587Z,2.00
2023-06-19T17:55:00.188Z,1.70
2023-06-19T17:57:27.127Z,1.50
2023-06-19T17:59:55.373Z,1.70
2023-06-19T18:02:22.762Z,1.80
2023-06-19T18:04:49.315Z,1.50
2023-06-19T18:07:16.644Z,1.40
2023-06-19T18:09:47.496Z,1.87
2023-06-19T18:12:15.932Z,1.87
2023-06-19T18:14:43.137Z,1.30
2023-06-19T18:17:09.648Z,1.40
2023-06-19T18:19:36.310Z,2.10
2023-06-19T18:22:02.893Z,1.60
2023-06-19T18:24:29.386Z,1.90
2023-06-19T18:26:55.982Z,1.77
2023-06-19T18:29:24.532Z,1.63
2023-06-19T18:31:51.318Z,2.40
2023-06-19T18:34:18.200Z,1.87
2023-06-19T18:36:44.688Z,1.70
2023-06-19T18:39:11.081Z,2.03
2023-06-19T18:41:37.673Z,2.20
2023-06-19T18:44:04.268Z,1.67
2023-06-19T18:46:30.862Z,2.10
2023-06-19T18:48:57.288Z,2.10
2023-06-19T18:51:23.782Z,1.97
2023-06-19T18:53:51.059Z,1.90
2023-06-19T18:56:18.883Z,1.87
2023-06-19T18:58:46.079Z,1.80
2023-06-19T19:01:14.001Z,2.23
2023-06-19T19:03:41.967Z,2.00
2023-06-19T19:06:08.850Z,2.03
2023-06-19T19:08:35.356Z,2.00
2023-06-19T19:11:01.878Z,1.80
2023-06-19T19:13:28.476Z,2.00
2023-06-19T19:15:55.155Z,2.50
2023-06-19T19:18:21.826Z,1.70
2023-06-19T19:20:48.463Z,2.23
2023-06-19T19:23:14.948Z,1.90
2023-06-19T19:25:41.434Z,1.93
2023-06-19T19:28:14.295Z,1.97
2023-06-19T19:30:45.298Z,2.30
2023-06-19T19:33:11.943Z,1.83
2023-06-19T19:35:38.607Z,2.00
2023-06-19T19:38:05.098Z,2.17
2023-06-19T19:40:31.626Z,2.40
2023-06-19T19:42:58.154Z,2.50
2023-06-19T19:45:24.613Z,2.00
2023-06-19T19:47:51.144Z,2.17
2023-06-19T19:50:17.659Z,2.63
2023-06-19T19:52:44.417Z,2.10
2023-06-19T19:55:12.256Z,2.23
2023-06-19T19:57:38.799Z,2.20
2023-06-19T20:00:06.206Z,2.27
2023-06-19T20:02:32.837Z,1.87
2023-06-19T20:05:01.525Z,2.30
2023-06-19T20:07:28.047Z,1.97
2023-06-19T20:09:54.541Z,2.07
2023-06-19T20:12:22.279Z,2.10
2023-06-19T20:14:49.547Z,1.90
2023-06-19T20:17:16.533Z,2.33
2023-06-19T20:19:43.101Z,1.93
2023-06-19T20:22:09.589Z,2.00
2023-06-19T20:24:36.227Z,1.87
2023-06-19T20:27:02.877Z,2.03
2023-06-19T20:29:29.342Z,2.20
2023-06-19T20:31:55.969Z,2.10
2023-06-19T20:34:22.673Z,2.33
2023-06-19T20:36:49.127Z,2.40
2023-06-19T20:39:16.129Z,2.27
2023-06-19T20:41:50.262Z,2.23
2023-06-19T20:44:18.229Z,1.87
2023-06-19T20:46:45.261Z,1.87
2023-06-19T20:49:11.855Z,1.90
2023-06-19T20:51:38.505Z,2.33
2023-06-19T20:54:05.827Z,1.87
2023-06-19T20:56:32.448Z,2.00
2023-06-19T20:58:58.980Z,2.37
2023-06-19T21:01:26.190Z,2.00
2023-06-19T21:03:52.822Z,2.00
2023-06-19T21:06:19.448Z,2.17
2023-06-19T21:08:46.031Z,2.50
2023-06-19T21:11:12.460Z,1.83
2023-06-19T21:13:39.676Z,2.63
2023-06-19T21:16:06.184Z,2.63
2023-06-19T21:18:32.658Z,2.33
2023-06-19T21:20:59.474Z,2.33
2023-06-19T21:23:25.898Z,2.50
2023-06-19T21:25:52.605Z,2.50
2023-06-19T21:28:19.106Z,2.23
2023-06-19T21:30:45.780Z,2.70
2023-06-19T21:33:12.545Z,1.90
2023-06-19T21:35:39.242Z,2.20
2023-06-19T21:38:05.929Z,2.40
2023-06-19T21:40:35.468Z,2.57
2023-06-19T21:43:02.257Z,2.60
2023-06-19T21:45:29.722Z,2.50
2023-06-19T21:47:57.293Z,1.97
2023-06-19T21:50:24.469Z,2.83
2023-06-19T21:53:32.635Z,2.27
2023-06-19T21:55:59.970Z,2.40
2023-06-19T21:58:26.868Z,2.07
2023-06-19T22:00:53.270Z,2.37
2023-06-19T22:03:19.988Z,2.70
2023-06-19T22:05:46.604Z,3.03
2023-06-19T22:08:14.402Z,3.00
2023-06-19T22:10:40.862Z,1.83
2023-06-19T22:13:14.164Z,2.20
2023-06-19T22:15:41.273Z,2.60
2023-06-19T22:18:07.820Z,2.53
2023-06-19T22:20:34.324Z,2.70
2023-06-19T22:23:01.096Z,2.10
2023-06-19T22:25:30.655Z,2.03
2023-06-19T22:27:59.726Z,2.03
2023-06-19T22:30:26.567Z,2.63
2023-06-19T22:32:53.338Z,2.30
2023-06-19T22:35:20.384Z,2.43
2023-06-19T22:37:47.723Z,2.87
2023-06-19T22:40:14.563Z,2.10
2023-06-19T22:42:42.579Z,2.00
2023-06-19T22:45:12.860Z,2.40
2023-06-19T22:47:39.827Z,2.17
2023-06-19T22:50:07.776Z,2.47
2023-06-19T22:52:34.924Z,1.97
2023-06-19T22:55:01.920Z,2.60
2023-06-19T22:57:28.615Z,2.00
2023-06-19T22:59:55.067Z,2.50
2023-06-19T23:02:21.787Z,2.33
2023-06-19T23:04:49.088Z,2.30
2023-06-19T23:07:15.568Z,2.63
2023-06-19T23:09:42.079Z,2.67
2023-06-19T23:12:09.008Z,2.40
2023-06-19T23:14:35.474Z,2.13
2023-06-19T23:17:02.029Z,2.57
2023-06-19T23:19:28.500Z,2.30
2023-06-19T23:21:55.579Z,2.53
2023-06-19T23:24:22.201Z,2.30
2023-06-19T23:26:50.017Z,2.50
2023-06-19T23:29:16.480Z,2.23
2023-06-19T23:31:42.957Z,2.50
2023-06-19T23:34:09.434Z,2.50
2023-06-19T23:36:36.150Z,2.20
2023-06-19T23:39:02.627Z,2.37
2023-06-19T23:41:29.102Z,2.07
2023-06-19T23:43:55.525Z,2.10
2023-06-19T23:46:22.060Z,2.50
2023-06-19T23:48:48.507Z,2.70
2023-06-19T23:51:14.995Z,2.40
2023-06-19T23:53:41.404Z,2.50
2023-06-19T23:56:07.836Z,2.50
2023-06-19T23:58:34.340Z,2.57
